Terminal Aerodrome Forecast
Issued by NWS

Home | Current Version | Previous Version | Text Only | Print | Product List | Glossary On
Versions: 1 2 3 4 5 6 7 8 9 10 11 12 13
000
FTUS45 KRIW 231700
TAFRKS
TAF
KRKS 231720Z 2318/2418 25020G30KT P6SM VCSH SCT040 BKN060
     FM232200 26020G30KT P6SM SCT050
     FM240300 27011KT P6SM FEW040 SCT100
     FM241600 26012KT P6SM FEW040=

USA.gov is the U.S. government's official web portal to all federal, state and local government web resources and services.